sensor_id;sensor_type;location;lat;lon;timestamp;pressure;altitude;pressure_sealevel;temperature;humidity
76337;BME280;65157;50.082;18.178;2022-12-29T00:00:08;99344.37;;;3.32;68.61
76337;BME280;65157;50.082;18.178;2022-12-29T00:02:54;99340.89;;;3.33;68.37
76337;BME280;65157;50.082;18.178;2022-12-29T00:05:21;99335.30;;;3.33;68.57
76337;BME280;65157;50.082;18.178;2022-12-29T00:07:48;99331.95;;;3.34;68.27
76337;BME280;65157;50.082;18.178;2022-12-29T00:10:14;99338.75;;;3.35;68.19
76337;BME280;65157;50.082;18.178;2022-12-29T00:12:41;99339.77;;;3.38;68.13
76337;BME280;65157;50.082;18.178;2022-12-29T00:15:26;99337.27;;;3.42;68.29
76337;BME280;65157;50.082;18.178;2022-12-29T00:18:06;99335.86;;;3.42;67.94
76337;BME280;65157;50.082;18.178;2022-12-29T00:20:34;99335.34;;;3.42;68.11
76337;BME280;65157;50.082;18.178;2022-12-29T00:23:36;99326.96;;;3.42;68.14
76337;BME280;65157;50.082;18.178;2022-12-29T00:26:22;99322.10;;;3.41;68.32
76337;BME280;65157;50.082;18.178;2022-12-29T00:29:07;99316.41;;;3.37;68.60
76337;BME280;65157;50.082;18.178;2022-12-29T00:31:53;99313.13;;;3.33;69.16
76337;BME280;65157;50.082;18.178;2022-12-29T00:34:38;99315.80;;;3.28;69.35
76337;BME280;65157;50.082;18.178;2022-12-29T00:37:24;99308.89;;;3.23;69.55
76337;BME280;65157;50.082;18.178;2022-12-29T00:40:11;99309.27;;;3.21;69.93
76337;BME280;65157;50.082;18.178;2022-12-29T00:42:56;99319.72;;;3.22;69.87
76337;BME280;65157;50.082;18.178;2022-12-29T00:45:42;99331.04;;;3.23;70.19
76337;BME280;65157;50.082;18.178;2022-12-29T00:48:08;99335.92;;;3.23;70.01
76337;BME280;65157;50.082;18.178;2022-12-29T00:50:35;99338.51;;;3.26;69.67
76337;BME280;65157;50.082;18.178;2022-12-29T00:53:01;99341.12;;;3.27;69.80
76337;BME280;65157;50.082;18.178;2022-12-29T00:55:28;99341.61;;;3.29;69.93
76337;BME280;65157;50.082;18.178;2022-12-29T00:57:55;99352.95;;;3.30;70.37
76337;BME280;65157;50.082;18.178;2022-12-29T01:00:21;99354.33;;;3.31;70.27
76337;BME280;65157;50.082;18.178;2022-12-29T01:02:48;99358.15;;;3.32;69.85
76337;BME280;65157;50.082;18.178;2022-12-29T01:05:14;99356.05;;;3.33;70.09
76337;BME280;65157;50.082;18.178;2022-12-29T01:07:41;99351.31;;;3.35;70.11
76337;BME280;65157;50.082;18.178;2022-12-29T01:10:08;99345.02;;;3.35;70.24
76337;BME280;65157;50.082;18.178;2022-12-29T01:12:37;99338.05;;;3.35;70.30
76337;BME280;65157;50.082;18.178;2022-12-29T01:15:08;99331.56;;;3.37;70.57
76337;BME280;65157;50.082;18.178;2022-12-29T01:17:35;99336.77;;;3.41;70.59
76337;BME280;65157;50.082;18.178;2022-12-29T01:20:03;99334.62;;;3.45;70.46
76337;BME280;65157;50.082;18.178;2022-12-29T01:22:29;99324.83;;;3.47;70.57
76337;BME280;65157;50.082;18.178;2022-12-29T01:24:56;99318.52;;;3.49;70.64
76337;BME280;65157;50.082;18.178;2022-12-29T01:27:23;99316.59;;;3.49;70.79
76337;BME280;65157;50.082;18.178;2022-12-29T01:29:49;99313.30;;;3.48;70.63
76337;BME280;65157;50.082;18.178;2022-12-29T01:32:16;99315.73;;;3.49;70.69
76337;BME280;65157;50.082;18.178;2022-12-29T01:34:42;99307.86;;;3.50;70.48
76337;BME280;65157;50.082;18.178;2022-12-29T01:37:09;99301.59;;;3.50;70.66
76337;BME280;65157;50.082;18.178;2022-12-29T01:39:35;99294.09;;;3.50;70.56
76337;BME280;65157;50.082;18.178;2022-12-29T01:42:02;99297.92;;;3.49;70.83
76337;BME280;65157;50.082;18.178;2022-12-29T01:44:54;99295.88;;;3.46;70.88
76337;BME280;65157;50.082;18.178;2022-12-29T01:47:37;99289.97;;;3.44;70.91
76337;BME280;65157;50.082;18.178;2022-12-29T01:50:09;99289.30;;;3.41;71.06
76337;BME280;65157;50.082;18.178;2022-12-29T01:52:43;99285.69;;;3.37;70.96
76337;BME280;65157;50.082;18.178;2022-12-29T01:55:12;99283.97;;;3.36;71.04
76337;BME280;65157;50.082;18.178;2022-12-29T01:57:42;99275.42;;;3.36;71.04
76337;BME280;65157;50.082;18.178;2022-12-29T02:00:12;99275.91;;;3.38;70.92
76337;BME280;65157;50.082;18.178;2022-12-29T02:02:46;99273.48;;;3.38;71.11
76337;BME280;65157;50.082;18.178;2022-12-29T02:05:33;99267.23;;;3.34;71.10
76337;BME280;65157;50.082;18.178;2022-12-29T02:08:03;99260.94;;;3.36;71.20
76337;BME280;65157;50.082;18.178;2022-12-29T02:10:32;99273.30;;;3.38;70.70
76337;BME280;65157;50.082;18.178;2022-12-29T02:12:59;99270.86;;;3.37;70.40
76337;BME280;65157;50.082;18.178;2022-12-29T02:18:20;99272.29;;;3.35;70.49
76337;BME280;65157;50.082;18.178;2022-12-29T02:21:14;99270.54;;;3.35;70.50
76337;BME280;65157;50.082;18.178;2022-12-29T02:33:04;99222.34;;;3.39;70.18
76337;BME280;65157;50.082;18.178;2022-12-29T02:36:26;99223.24;;;3.50;69.70
76337;BME280;65157;50.082;18.178;2022-12-29T02:42:20;99206.23;;;3.78;68.50
76337;BME280;65157;50.082;18.178;2022-12-29T02:45:02;99211.73;;;3.83;68.69
76337;BME280;65157;50.082;18.178;2022-12-29T02:47:41;99229.16;;;3.85;68.56
76337;BME280;65157;50.082;18.178;2022-12-29T02:53:01;99236.83;;;3.87;68.88
76337;BME280;65157;50.082;18.178;2022-12-29T02:55:28;99231.97;;;3.85;69.09
76337;BME280;65157;50.082;18.178;2022-12-29T03:01:09;99229.08;;;3.79;69.34
76337;BME280;65157;50.082;18.178;2022-12-29T03:09:37;99239.21;;;3.79;68.98
76337;BME280;65157;50.082;18.178;2022-12-29T03:12:30;99245.06;;;3.84;68.74
76337;BME280;65157;50.082;18.178;2022-12-29T03:15:40;99249.16;;;3.90;68.33
76337;BME280;65157;50.082;18.178;2022-12-29T03:18:47;99251.73;;;3.94;68.54
76337;BME280;65157;50.082;18.178;2022-12-29T03:21:26;99257.11;;;3.95;68.62
76337;BME280;65157;50.082;18.178;2022-12-29T03:24:15;99251.20;;;3.94;68.56
76337;BME280;65157;50.082;18.178;2022-12-29T03:26:42;99258.39;;;3.92;68.23
76337;BME280;65157;50.082;18.178;2022-12-29T03:29:11;99265.25;;;3.89;68.71
76337;BME280;65157;50.082;18.178;2022-12-29T03:31:38;99258.70;;;3.84;68.65
76337;BME280;65157;50.082;18.178;2022-12-29T03:34:06;99249.85;;;3.80;68.85
76337;BME280;65157;50.082;18.178;2022-12-29T03:37:11;99252.35;;;3.76;69.10
76337;BME280;65157;50.082;18.178;2022-12-29T03:39:39;99248.76;;;3.71;69.13
76337;BME280;65157;50.082;18.178;2022-12-29T03:42:11;99240.27;;;3.67;69.40
76337;BME280;65157;50.082;18.178;2022-12-29T03:44:42;99240.32;;;3.64;69.31
76337;BME280;65157;50.082;18.178;2022-12-29T03:47:13;99239.84;;;3.60;69.20
76337;BME280;65157;50.082;18.178;2022-12-29T03:49:41;99233.62;;;3.56;69.03
76337;BME280;65157;50.082;18.178;2022-12-29T03:52:08;99223.89;;;3.53;69.19
76337;BME280;65157;50.082;18.178;2022-12-29T03:54:34;99217.63;;;3.52;69.36
76337;BME280;65157;50.082;18.178;2022-12-29T03:57:01;99216.57;;;3.53;69.36
76337;BME280;65157;50.082;18.178;2022-12-29T03:59:27;99220.20;;;3.55;69.18
76337;BME280;65157;50.082;18.178;2022-12-29T04:01:54;99219.83;;;3.56;69.45
76337;BME280;65157;50.082;18.178;2022-12-29T04:04:21;99219.84;;;3.56;69.38
76337;BME280;65157;50.082;18.178;2022-12-29T04:06:47;99217.58;;;3.56;69.38
76337;BME280;65157;50.082;18.178;2022-12-29T04:09:14;99223.34;;;3.56;69.37
76337;BME280;65157;50.082;18.178;2022-12-29T04:11:41;99221.06;;;3.55;69.55
76337;BME280;65157;50.082;18.178;2022-12-29T04:14:07;99218.84;;;3.52;69.68
76337;BME280;65157;50.082;18.178;2022-12-29T04:16:34;99213.31;;;3.49;69.79
76337;BME280;65157;50.082;18.178;2022-12-29T04:19:02;99215.79;;;3.46;70.07
76337;BME280;65157;50.082;18.178;2022-12-29T04:21:29;99216.16;;;3.44;69.81
76337;BME280;65157;50.082;18.178;2022-12-29T04:23:55;99205.01;;;3.44;69.75
76337;BME280;65157;50.082;18.178;2022-12-29T04:26:22;99194.48;;;3.47;69.76
76337;BME280;65157;50.082;18.178;2022-12-29T04:28:49;99177.34;;;3.52;69.75
76337;BME280;65157;50.082;18.178;2022-12-29T04:31:15;99172.88;;;3.57;69.58
76337;BME280;65157;50.082;18.178;2022-12-29T04:33:42;99186.95;;;3.61;69.45
76337;BME280;65157;50.082;18.178;2022-12-29T04:36:08;99187.85;;;3.60;69.25
76337;BME280;65157;50.082;18.178;2022-12-29T04:38:35;99187.39;;;3.66;69.32
76337;BME280;65157;50.082;18.178;2022-12-29T04:41:02;99190.50;;;3.68;69.04
76337;BME280;65157;50.082;18.178;2022-12-29T04:43:29;99198.16;;;3.69;69.02
76337;BME280;65157;50.082;18.178;2022-12-29T04:45:55;99197.63;;;3.70;68.83
76337;BME280;65157;50.082;18.178;2022-12-29T04:48:22;99188.14;;;3.74;68.77
76337;BME280;65157;50.082;18.178;2022-12-29T04:50:49;99190.39;;;3.76;68.91
76337;BME280;65157;50.082;18.178;2022-12-29T04:53:17;99185.11;;;3.78;69.00
76337;BME280;65157;50.082;18.178;2022-12-29T04:55:44;99194.36;;;3.78;69.11
76337;BME280;65157;50.082;18.178;2022-12-29T04:58:10;99189.52;;;3.76;69.23
76337;BME280;65157;50.082;18.178;2022-12-29T05:00:37;99200.73;;;3.73;69.23
76337;BME280;65157;50.082;18.178;2022-12-29T05:03:03;99208.27;;;3.71;69.39
76337;BME280;65157;50.082;18.178;2022-12-29T05:05:30;99207.06;;;3.70;69.22
76337;BME280;65157;50.082;18.178;2022-12-29T05:07:57;99203.05;;;3.69;69.41
76337;BME280;65157;50.082;18.178;2022-12-29T05:10:23;99198.88;;;3.69;69.41
76337;BME280;65157;50.082;18.178;2022-12-29T05:12:50;99198.90;;;3.67;69.52
76337;BME280;65157;50.082;18.178;2022-12-29T05:15:17;99190.83;;;3.68;69.40
76337;BME280;65157;50.082;18.178;2022-12-29T05:17:43;99190.77;;;3.73;69.50
76337;BME280;65157;50.082;18.178;2022-12-29T05:20:10;99183.92;;;3.76;69.18
76337;BME280;65157;50.082;18.178;2022-12-29T05:22:37;99183.86;;;3.79;69.41
76337;BME280;65157;50.082;18.178;2022-12-29T05:25:04;99193.27;;;3.81;69.26
76337;BME280;65157;50.082;18.178;2022-12-29T05:27:31;99197.62;;;3.82;69.31
76337;BME280;65157;50.082;18.178;2022-12-29T05:29:57;99192.92;;;3.81;69.37
76337;BME280;65157;50.082;18.178;2022-12-29T05:32:24;99186.67;;;3.79;69.19
76337;BME280;65157;50.082;18.178;2022-12-29T05:34:51;99181.61;;;3.79;69.16
76337;BME280;65157;50.082;18.178;2022-12-29T05:37:18;99173.07;;;3.78;69.36
76337;BME280;65157;50.082;18.178;2022-12-29T05:39:44;99175.88;;;3.77;69.54
76337;BME280;65157;50.082;18.178;2022-12-29T05:42:11;99173.63;;;3.75;69.81
76337;BME280;65157;50.082;18.178;2022-12-29T05:44:37;99173.29;;;3.75;69.85
76337;BME280;65157;50.082;18.178;2022-12-29T05:47:04;99174.85;;;3.76;69.94
76337;BME280;65157;50.082;18.178;2022-12-29T05:49:30;99172.56;;;3.76;69.77
76337;BME280;65157;50.082;18.178;2022-12-29T05:51:57;99169.77;;;3.76;69.99
76337;BME280;65157;50.082;18.178;2022-12-29T05:54:24;99168.56;;;3.76;69.89
76337;BME280;65157;50.082;18.178;2022-12-29T05:56:51;99167.16;;;3.75;69.77
76337;BME280;65157;50.082;18.178;2022-12-29T05:59:17;99162.64;;;3.75;69.81
76337;BME280;65157;50.082;18.178;2022-12-29T06:01:44;99152.18;;;3.74;69.82
76337;BME280;65157;50.082;18.178;2022-12-29T06:04:10;99144.35;;;3.73;69.81
76337;BME280;65157;50.082;18.178;2022-12-29T06:06:37;99139.80;;;3.73;69.91
76337;BME280;65157;50.082;18.178;2022-12-29T06:09:05;99137.71;;;3.73;69.91
76337;BME280;65157;50.082;18.178;2022-12-29T06:11:31;99151.14;;;3.75;69.92
76337;BME280;65157;50.082;18.178;2022-12-29T06:13:58;99160.84;;;3.78;69.77
76337;BME280;65157;50.082;18.178;2022-12-29T06:16:24;99163.77;;;3.81;69.83
76337;BME280;65157;50.082;18.178;2022-12-29T06:18:51;99161.82;;;3.83;70.00
76337;BME280;65157;50.082;18.178;2022-12-29T06:21:18;99162.83;;;3.85;69.83
76337;BME280;65157;50.082;18.178;2022-12-29T06:23:44;99155.69;;;3.84;70.21
76337;BME280;65157;50.082;18.178;2022-12-29T06:26:11;99144.54;;;3.82;70.24
76337;BME280;65157;50.082;18.178;2022-12-29T06:28:37;99135.17;;;3.79;70.39
76337;BME280;65157;50.082;18.178;2022-12-29T06:31:04;99128.58;;;3.77;70.22
76337;BME280;65157;50.082;18.178;2022-12-29T06:33:31;99140.11;;;3.76;70.32
76337;BME280;65157;50.082;18.178;2022-12-29T06:35:58;99140.65;;;3.75;70.29
76337;BME280;65157;50.082;18.178;2022-12-29T06:38:24;99132.30;;;3.74;70.34
76337;BME280;65157;50.082;18.178;2022-12-29T06:40:51;99134.42;;;3.71;70.68
76337;BME280;65157;50.082;18.178;2022-12-29T06:43:18;99132.52;;;3.71;70.78
76337;BME280;65157;50.082;18.178;2022-12-29T06:45:45;99139.49;;;3.71;71.03
76337;BME280;65157;50.082;18.178;2022-12-29T06:48:12;99149.75;;;3.74;70.71
76337;BME280;65157;50.082;18.178;2022-12-29T06:50:38;99155.76;;;3.80;70.64
76337;BME280;65157;50.082;18.178;2022-12-29T06:53:05;99160.55;;;3.86;70.49
76337;BME280;65157;50.082;18.178;2022-12-29T06:55:32;99171.84;;;3.89;70.62
76337;BME280;65157;50.082;18.178;2022-12-29T06:57:59;99178.27;;;3.90;70.44
76337;BME280;65157;50.082;18.178;2022-12-29T07:00:26;99174.82;;;3.88;70.53
76337;BME280;65157;50.082;18.178;2022-12-29T07:02:55;99167.35;;;3.86;70.70
76337;BME280;65157;50.082;18.178;2022-12-29T07:05:22;99158.52;;;3.82;71.02
76337;BME280;65157;50.082;18.178;2022-12-29T07:07:48;99151.19;;;3.81;71.27
76337;BME280;65157;50.082;18.178;2022-12-29T07:10:15;99149.80;;;3.80;71.52
76337;BME280;65157;50.082;18.178;2022-12-29T07:12:41;99132.97;;;3.65;71.60
76337;BME280;65157;50.082;18.178;2022-12-29T07:15:08;99167.75;;;3.83;71.85
76337;BME280;65157;50.082;18.178;2022-12-29T07:17:37;99175.22;;;3.86;71.67
76337;BME280;65157;50.082;18.178;2022-12-29T07:20:05;99171.10;;;3.91;71.66
76337;BME280;65157;50.082;18.178;2022-12-29T07:22:32;99168.94;;;3.95;71.64
76337;BME280;65157;50.082;18.178;2022-12-29T07:24:59;99163.98;;;4.00;71.73
76337;BME280;65157;50.082;18.178;2022-12-29T07:27:26;99177.51;;;4.05;71.55
76337;BME280;65157;50.082;18.178;2022-12-29T07:29:52;99182.66;;;4.10;71.43
76337;BME280;65157;50.082;18.178;2022-12-29T07:32:19;99170.91;;;4.12;71.23
76337;BME280;65157;50.082;18.178;2022-12-29T07:34:46;99168.44;;;4.14;71.16
76337;BME280;65157;50.082;18.178;2022-12-29T07:37:17;99169.44;;;4.16;71.11
76337;BME280;65157;50.082;18.178;2022-12-29T07:39:44;99167.00;;;4.16;71.06
76337;BME280;65157;50.082;18.178;2022-12-29T07:42:10;99169.77;;;4.17;71.11
76337;BME280;65157;50.082;18.178;2022-12-29T07:44:37;99163.65;;;4.18;71.12
76337;BME280;65157;50.082;18.178;2022-12-29T07:47:03;99158.22;;;4.19;71.26
76337;BME280;65157;50.082;18.178;2022-12-29T07:49:30;99155.62;;;4.18;71.43
76337;BME280;65157;50.082;18.178;2022-12-29T07:51:57;99137.27;;;4.18;71.37
76337;BME280;65157;50.082;18.178;2022-12-29T07:54:23;99133.04;;;4.21;71.43
76337;BME280;65157;50.082;18.178;2022-12-29T07:56:50;99137.52;;;4.23;71.56
76337;BME280;65157;50.082;18.178;2022-12-29T07:59:17;99144.65;;;4.25;71.49
76337;BME280;65157;50.082;18.178;2022-12-29T08:01:44;99148.85;;;4.25;71.36
76337;BME280;65157;50.082;18.178;2022-12-29T08:04:10;99149.52;;;4.27;71.22
76337;BME280;65157;50.082;18.178;2022-12-29T08:06:37;99145.67;;;4.27;71.31
76337;BME280;65157;50.082;18.178;2022-12-29T08:09:04;99146.20;;;4.26;71.34
76337;BME280;65157;50.082;18.178;2022-12-29T08:11:31;99148.84;;;4.26;71.55
76337;BME280;65157;50.082;18.178;2022-12-29T08:13:57;99146.05;;;4.25;71.41
76337;BME280;65157;50.082;18.178;2022-12-29T08:16:24;99139.07;;;4.24;71.53
76337;BME280;65157;50.082;18.178;2022-12-29T08:18:50;99139.41;;;4.25;71.54
76337;BME280;65157;50.082;18.178;2022-12-29T08:21:17;99137.09;;;4.28;71.53
76337;BME280;65157;50.082;18.178;2022-12-29T08:23:43;99131.92;;;4.33;71.29
76337;BME280;65157;50.082;18.178;2022-12-29T08:26:10;99129.41;;;4.37;71.39
76337;BME280;65157;50.082;18.178;2022-12-29T08:28:37;99129.13;;;4.42;71.34
76337;BME280;65157;50.082;18.178;2022-12-29T08:31:04;99137.10;;;4.45;71.16
76337;BME280;65157;50.082;18.178;2022-12-29T08:33:31;99137.66;;;4.44;71.26
76337;BME280;65157;50.082;18.178;2022-12-29T08:35:59;99144.84;;;4.42;71.12
76337;BME280;65157;50.082;18.178;2022-12-29T08:38:28;99147.80;;;4.43;71.31
76337;BME280;65157;50.082;18.178;2022-12-29T08:40:56;99156.35;;;4.44;71.28
76337;BME280;65157;50.082;18.178;2022-12-29T08:43:23;99165.64;;;4.43;71.20
76337;BME280;65157;50.082;18.178;2022-12-29T08:45:50;99171.23;;;4.42;71.53
76337;BME280;65157;50.082;18.178;2022-12-29T08:48:17;99170.70;;;4.43;71.62
76337;BME280;65157;50.082;18.178;2022-12-29T08:50:46;99168.02;;;4.45;71.80
76337;BME280;65157;50.082;18.178;2022-12-29T08:53:12;99162.34;;;4.50;71.67
76337;BME280;65157;50.082;18.178;2022-12-29T08:55:39;99155.59;;;4.56;71.50
76337;BME280;65157;50.082;18.178;2022-12-29T08:58:06;99156.69;;;4.63;71.20
76337;BME280;65157;50.082;18.178;2022-12-29T09:00:32;99153.77;;;4.68;71.20
76337;BME280;65157;50.082;18.178;2022-12-29T09:02:59;99157.69;;;4.74;70.97
76337;BME280;65157;50.082;18.178;2022-12-29T09:05:26;99163.16;;;4.80;71.05
76337;BME280;65157;50.082;18.178;2022-12-29T09:07:52;99173.92;;;4.84;70.73
76337;BME280;65157;50.082;18.178;2022-12-29T09:10:19;99175.43;;;4.86;70.81
76337;BME280;65157;50.082;18.178;2022-12-29T09:12:46;99175.52;;;4.90;71.07
76337;BME280;65157;50.082;18.178;2022-12-29T09:15:12;99165.84;;;4.93;70.74
76337;BME280;65157;50.082;18.178;2022-12-29T09:17:39;99165.74;;;4.98;70.42
76337;BME280;65157;50.082;18.178;2022-12-29T09:20:17;99162.08;;;5.06;70.64
76337;BME280;65157;50.082;18.178;2022-12-29T09:22:46;99159.27;;;5.15;70.86
76337;BME280;65157;50.082;18.178;2022-12-29T09:25:13;99161.58;;;5.29;70.45
76337;BME280;65157;50.082;18.178;2022-12-29T09:27:40;99165.96;;;5.43;69.52
76337;BME280;65157;50.082;18.178;2022-12-29T09:30:10;99161.44;;;5.58;69.33
76337;BME280;65157;50.082;18.178;2022-12-29T09:32:37;99166.37;;;5.71;69.45
76337;BME280;65157;50.082;18.178;2022-12-29T09:35:04;99170.29;;;5.83;69.08
76337;BME280;65157;50.082;18.178;2022-12-29T09:37:30;99170.80;;;5.91;68.54
76337;BME280;65157;50.082;18.178;2022-12-29T09:39:57;99166.96;;;5.98;68.21
76337;BME280;65157;50.082;18.178;2022-12-29T09:42:28;99163.26;;;6.06;67.83
76337;BME280;65157;50.082;18.178;2022-12-29T09:47:30;99149.02;;;6.21;67.79
76337;BME280;65157;50.082;18.178;2022-12-29T09:50:05;99146.52;;;6.30;66.90
76337;BME280;65157;50.082;18.178;2022-12-29T09:52:39;99142.16;;;6.41;66.59
76337;BME280;65157;50.082;18.178;2022-12-29T09:55:14;99136.05;;;6.53;65.91
76337;BME280;65157;50.082;18.178;2022-12-29T10:00:21;99128.98;;;6.67;65.52
76337;BME280;65157;50.082;18.178;2022-12-29T10:03:24;99121.64;;;6.72;64.90
76337;BME280;65157;50.082;18.178;2022-12-29T10:14:32;99114.80;;;7.08;65.13
76337;BME280;65157;50.082;18.178;2022-12-29T10:20:18;99094.11;;;7.29;65.28
76337;BME280;65157;50.082;18.178;2022-12-29T10:25:22;99093.23;;;7.46;64.06
76337;BME280;65157;50.082;18.178;2022-12-29T10:27:53;99087.45;;;7.51;64.27
76337;BME280;65157;50.082;18.178;2022-12-29T10:30:22;99093.27;;;7.56;64.48
76337;BME280;65157;50.082;18.178;2022-12-29T10:32:56;99094.17;;;7.61;64.73
76337;BME280;65157;50.082;18.178;2022-12-29T10:35:34;99094.13;;;7.62;64.08
76337;BME280;65157;50.082;18.178;2022-12-29T10:41:13;99093.63;;;7.71;64.39
76337;BME280;65157;50.082;18.178;2022-12-29T10:43:49;99093.02;;;7.74;64.10
76337;BME280;65157;50.082;18.178;2022-12-29T10:46:26;99097.08;;;7.79;63.77
76337;BME280;65157;50.082;18.178;2022-12-29T10:48:54;99095.27;;;7.81;63.70
76337;BME280;65157;50.082;18.178;2022-12-29T10:51:24;99094.15;;;7.82;63.59
76337;BME280;65157;50.082;18.178;2022-12-29T10:53:57;99088.75;;;7.86;63.43
76337;BME280;65157;50.082;18.178;2022-12-29T10:56:34;99092.45;;;7.91;62.89
76337;BME280;65157;50.082;18.178;2022-12-29T10:59:19;99093.56;;;8.00;63.26
76337;BME280;65157;50.082;18.178;2022-12-29T11:07:11;99084.17;;;8.51;62.98
76337;BME280;65157;50.082;18.178;2022-12-29T11:09:39;99072.89;;;8.71;62.12
76337;BME280;65157;50.082;18.178;2022-12-29T11:12:25;99071.09;;;8.82;61.13
76337;BME280;65157;50.082;18.178;2022-12-29T11:17:53;99076.20;;;8.86;60.86
76337;BME280;65157;50.082;18.178;2022-12-29T11:20:27;99081.10;;;8.87;60.01
76337;BME280;65157;50.082;18.178;2022-12-29T11:22:54;99079.15;;;8.92;60.67
76337;BME280;65157;50.082;18.178;2022-12-29T11:25:21;99064.98;;;8.98;61.41
76337;BME280;65157;50.082;18.178;2022-12-29T11:28:14;99062.95;;;9.05;61.84
76337;BME280;65157;50.082;18.178;2022-12-29T11:30:41;99059.59;;;9.10;61.94
76337;BME280;65157;50.082;18.178;2022-12-29T11:33:08;99056.91;;;9.16;60.52
76337;BME280;65157;50.082;18.178;2022-12-29T11:35:39;99060.80;;;9.24;60.45
76337;BME280;65157;50.082;18.178;2022-12-29T11:38:20;99049.77;;;9.31;60.22
76337;BME280;65157;50.082;18.178;2022-12-29T11:40:47;99050.98;;;9.36;60.56
76337;BME280;65157;50.082;18.178;2022-12-29T11:43:30;99057.65;;;9.41;60.99
76337;BME280;65157;50.082;18.178;2022-12-29T11:46:00;99066.43;;;9.41;60.86
76337;BME280;65157;50.082;18.178;2022-12-29T11:48:33;99068.86;;;9.38;60.76
76337;BME280;65157;50.082;18.178;2022-12-29T11:51:04;99066.52;;;9.35;61.16
76337;BME280;65157;50.082;18.178;2022-12-29T11:53:39;99061.98;;;9.30;61.05
76337;BME280;65157;50.082;18.178;2022-12-29T11:56:12;99067.13;;;9.24;61.15
76337;BME280;65157;50.082;18.178;2022-12-29T11:58:39;99067.80;;;9.21;61.59
76337;BME280;65157;50.082;18.178;2022-12-29T12:04:06;99069.04;;;9.16;61.17
76337;BME280;65157;50.082;18.178;2022-12-29T12:06:46;99068.43;;;9.14;61.29
76337;BME280;65157;50.082;18.178;2022-12-29T12:09:29;99065.52;;;9.12;61.22
76337;BME280;65157;50.082;18.178;2022-12-29T12:11:57;99067.67;;;9.11;61.78
76337;BME280;65157;50.082;18.178;2022-12-29T12:17:03;99061.52;;;9.15;62.32
76337;BME280;65157;50.082;18.178;2022-12-29T12:19:47;99054.52;;;9.14;61.68
76337;BME280;65157;50.082;18.178;2022-12-29T12:24:54;99055.28;;;9.17;62.72
76337;BME280;65157;50.082;18.178;2022-12-29T12:28:00;99058.59;;;9.18;62.60
76337;BME280;65157;50.082;18.178;2022-12-29T12:30:21;99057.30;;;9.19;62.68
76337;BME280;65157;50.082;18.178;2022-12-29T12:33:36;99048.67;;;9.19;62.66
76337;BME280;65157;50.082;18.178;2022-12-29T12:36:18;99040.05;;;9.19;59.82
76337;BME280;65157;50.082;18.178;2022-12-29T12:41:30;99027.23;;;9.13;60.29
76337;BME280;65157;50.082;18.178;2022-12-29T12:49:52;99020.54;;;9.05;60.63
76337;BME280;65157;50.082;18.178;2022-12-29T12:52:46;99019.16;;;9.04;61.07
76337;BME280;65157;50.082;18.178;2022-12-29T12:58:40;99007.77;;;9.16;60.82
76337;BME280;65157;50.082;18.178;2022-12-29T13:01:38;99003.52;;;9.59;60.67
76337;BME280;65157;50.082;18.178;2022-12-29T13:15:54;99003.39;;;11.35;58.66
76337;BME280;65157;50.082;18.178;2022-12-29T13:21:12;99001.39;;;11.11;59.67
76337;BME280;65157;50.082;18.178;2022-12-29T13:23:57;98998.14;;;10.90;59.55
76337;BME280;65157;50.082;18.178;2022-12-29T13:26:35;98998.26;;;10.62;60.01
76337;BME280;65157;50.082;18.178;2022-12-29T13:37:46;99022.13;;;9.73;61.77
76337;BME280;65157;50.082;18.178;2022-12-29T13:40:18;99030.36;;;9.61;62.13
76337;BME280;65157;50.082;18.178;2022-12-29T13:42:47;99028.06;;;9.49;62.56
76337;BME280;65157;50.082;18.178;2022-12-29T13:45:19;99027.17;;;9.37;63.23
76337;BME280;65157;50.082;18.178;2022-12-29T13:48:07;99031.58;;;9.24;63.24
76337;BME280;65157;50.082;18.178;2022-12-29T13:50:38;99029.30;;;9.14;63.69
76337;BME280;65157;50.082;18.178;2022-12-29T13:55:40;99019.73;;;9.12;63.96
76337;BME280;65157;50.082;18.178;2022-12-29T13:58:32;99031.70;;;9.07;63.89
76337;BME280;65157;50.082;18.178;2022-12-29T14:03:56;99039.23;;;8.95;64.09
76337;BME280;65157;50.082;18.178;2022-12-29T14:06:27;99044.34;;;8.95;63.96
76337;BME280;65157;50.082;18.178;2022-12-29T14:09:00;99047.06;;;8.97;63.88
76337;BME280;65157;50.082;18.178;2022-12-29T14:11:39;99033.22;;;8.96;63.11
76337;BME280;65157;50.082;18.178;2022-12-29T14:14:23;99033.41;;;9.00;62.57
76337;BME280;65157;50.082;18.178;2022-12-29T14:16:52;99037.38;;;8.97;62.45
76337;BME280;65157;50.082;18.178;2022-12-29T14:19:33;99045.48;;;8.88;62.75
76337;BME280;65157;50.082;18.178;2022-12-29T14:22:04;99049.05;;;8.74;62.89
76337;BME280;65157;50.082;18.178;2022-12-29T14:29:49;99031.48;;;8.30;63.31
76337;BME280;65157;50.082;18.178;2022-12-29T14:34:59;99025.36;;;8.05;63.93
76337;BME280;65157;50.082;18.178;2022-12-29T14:37:33;99025.90;;;7.94;64.11
76337;BME280;65157;50.082;18.178;2022-12-29T14:40:23;99039.59;;;7.85;64.36
76337;BME280;65157;50.082;18.178;2022-12-29T14:42:54;99050.41;;;7.77;64.45
76337;BME280;65157;50.082;18.178;2022-12-29T14:45:30;99060.60;;;7.72;64.77
76337;BME280;65157;50.082;18.178;2022-12-29T14:48:21;99070.88;;;7.69;65.24
76337;BME280;65157;50.082;18.178;2022-12-29T14:50:54;99065.06;;;7.65;65.37
76337;BME280;65157;50.082;18.178;2022-12-29T14:53:49;99063.66;;;7.59;65.53
76337;BME280;65157;50.082;18.178;2022-12-29T14:56:19;99059.88;;;7.56;65.62
76337;BME280;65157;50.082;18.178;2022-12-29T14:58:56;99062.36;;;7.56;65.87
76337;BME280;65157;50.082;18.178;2022-12-29T15:01:35;99062.96;;;7.59;66.07
76337;BME280;65157;50.082;18.178;2022-12-29T15:04:26;99067.02;;;7.59;66.18
76337;BME280;65157;50.082;18.178;2022-12-29T15:06:54;99067.05;;;7.58;65.96
76337;BME280;65157;50.082;18.178;2022-12-29T15:09:27;99072.67;;;7.52;65.51
76337;BME280;65157;50.082;18.178;2022-12-29T15:12:01;99069.26;;;7.44;65.58
76337;BME280;65157;50.082;18.178;2022-12-29T15:14:37;99065.39;;;7.38;65.78
76337;BME280;65157;50.082;18.178;2022-12-29T15:17:25;99063.59;;;7.34;65.72